Time;durP1;ratioP1;P1;durP2;ratioP2;P2;SDS_P1;SDS_P2;PMS_P1;PMS_P2;Temp;Humidity;BMP_temperature;BMP_pressure;BME280_temperature;BME280_humidity;BME280_pressure;Samples;Min_cycle;Max_cycle;Signal;HPM_P1;HPM_P2
2021/12/26 00:01:20;;;;;;;24.52;11.48;;;-3.50;99.90;;;;;;5018438;28;20038;-72
2021/12/26 00:03:46;;;;;;;22.63;11.23;;;-3.50;99.90;;;;;;5020208;28;20033;-71
2021/12/26 00:06:22;;;;;;;25.17;12.70;;;-3.50;99.90;;;;;;5018016;28;20352;-71
2021/12/26 00:08:49;;;;;;;27.92;12.70;;;-3.50;99.90;;;;;;5017814;28;20045;-70
2021/12/26 00:11:15;;;;;;;27.75;11.85;;;-3.50;99.90;;;;;;5021671;28;20036;-71
2021/12/26 00:13:41;;;;;;;20.40;10.57;;;-3.50;99.90;;;;;;5019026;28;20033;-72
2021/12/26 00:16:08;;;;;;;26.48;11.77;;;-3.60;99.90;;;;;;5019950;28;20042;-72
2021/12/26 00:18:36;;;;;;;22.27;10.55;;;-3.60;99.90;;;;;;5018733;28;20046;-71
2021/12/26 00:21:02;;;;;;;20.13;9.95;;;-3.60;99.90;;;;;;5017946;28;20558;-71
2021/12/26 00:23:28;;;;;;;22.23;9.38;;;-3.60;99.90;;;;;;5019478;28;20039;-71
2021/12/26 00:25:54;;;;;;;21.75;9.10;;;-3.70;99.90;;;;;;5017312;28;20117;-72
2021/12/26 00:28:20;;;;;;;19.15;9.23;;;-3.70;99.90;;;;;;5020266;28;20030;-71
2021/12/26 00:30:46;;;;;;;18.73;9.30;;;-3.80;99.90;;;;;;5015482;28;20028;-71
2021/12/26 00:33:13;;;;;;;21.05;10.00;;;-3.80;99.90;;;;;;5019896;28;20475;-72
2021/12/26 00:35:39;;;;;;;22.92;10.13;;;-3.80;99.90;;;;;;5018887;28;20029;-71
2021/12/26 00:38:05;;;;;;;22.70;9.20;;;-3.80;99.90;;;;;;5016862;28;20037;-71
2021/12/26 00:40:32;;;;;;;23.67;7.90;;;-3.80;99.90;;;;;;5018834;28;20116;-72
2021/12/26 00:42:58;;;;;;;22.42;8.52;;;-3.80;99.90;;;;;;5023765;28;20047;-73
2021/12/26 00:45:24;;;;;;;19.88;8.50;;;-3.80;99.90;;;;;;5021121;28;20455;-71
2021/12/26 00:47:50;;;;;;;19.42;7.25;;;-3.80;99.90;;;;;;5016389;28;20075;-71
2021/12/26 00:50:24;;;;;;;22.35;8.77;;;-3.80;99.90;;;;;;5019409;28;20026;-71
2021/12/26 00:52:50;;;;;;;18.58;7.40;;;-3.80;99.90;;;;;;5022840;28;20072;-73
2021/12/26 00:55:16;;;;;;;17.42;7.72;;;-3.80;99.90;;;;;;5018412;28;20088;-71
2021/12/26 00:57:43;;;;;;;17.20;7.05;;;-3.80;99.90;;;;;;5017603;28;20041;-71
2021/12/26 01:00:14;;;;;;;17.45;7.45;;;-3.90;99.90;;;;;;5016524;28;20026;-72
2021/12/26 01:02:40;;;;;;;19.00;7.28;;;-3.90;99.90;;;;;;5018242;28;20641;-70
2021/12/26 01:05:08;;;;;;;16.30;6.82;;;-3.90;99.90;;;;;;5019433;28;20030;-71
2021/12/26 01:07:46;;;;;;;17.27;7.28;;;-4.00;99.90;;;;;;5017190;28;20515;-72
2021/12/26 01:10:14;;;;;;;12.98;6.30;;;-4.00;99.90;;;;;;5018507;28;20025;-71
2021/12/26 01:12:41;;;;;;;16.98;6.82;;;-4.00;99.90;;;;;;5019722;28;20395;-71
2021/12/26 01:15:09;;;;;;;13.05;6.80;;;-3.90;99.90;;;;;;5020922;28;20029;-73
2021/12/26 01:17:39;;;;;;;18.10;7.82;;;-4.00;99.90;;;;;;5017283;28;20029;-71
2021/12/26 01:20:09;;;;;;;18.25;9.05;;;-4.00;99.90;;;;;;5016686;28;20040;-71
2021/12/26 01:22:36;;;;;;;16.00;7.75;;;-4.00;99.90;;;;;;5018290;28;20427;-70
2021/12/26 01:25:02;;;;;;;14.90;6.85;;;-4.00;99.90;;;;;;5016775;28;20497;-70
2021/12/26 01:27:28;;;;;;;14.05;7.90;;;-4.00;99.90;;;;;;5015975;28;20041;-71
2021/12/26 01:29:54;;;;;;;16.13;7.07;;;-4.00;99.90;;;;;;5017831;28;20034;-72
2021/12/26 01:32:21;;;;;;;19.05;8.27;;;-4.00;99.90;;;;;;5019757;28;20038;-71
2021/12/26 01:34:47;;;;;;;16.92;8.40;;;-4.10;99.90;;;;;;5018257;28;20026;-71
2021/12/26 01:37:13;;;;;;;20.50;8.40;;;-4.20;99.90;;;;;;5018968;28;20430;-72
2021/12/26 01:39:39;;;;;;;18.10;8.18;;;-4.20;99.90;;;;;;5021053;28;20095;-71
2021/12/26 01:42:10;;;;;;;15.75;8.35;;;-4.30;99.90;;;;;;5023085;28;20029;-71
2021/12/26 01:44:39;;;;;;;15.82;7.63;;;-4.30;99.90;;;;;;5020059;28;20038;-71
2021/12/26 01:47:05;;;;;;;13.90;7.18;;;-4.30;99.90;;;;;;5021864;28;20030;-71
2021/12/26 01:49:32;;;;;;;13.43;6.82;;;-4.30;99.90;;;;;;5019761;28;20100;-70
2021/12/26 01:52:03;;;;;;;12.85;6.18;;;-4.20;99.90;;;;;;5021766;28;20029;-71
2021/12/26 01:56:59;;;;;;;17.38;6.38;;;-4.30;99.90;;;;;;5021115;28;20028;-71
2021/12/26 01:59:25;;;;;;;13.40;5.93;;;-4.20;99.90;;;;;;5021380;28;20668;-72
2021/12/26 02:01:50;;;;;;;10.50;5.75;;;-4.30;99.90;;;;;;5019596;28;20037;-71
2021/12/26 02:04:16;;;;;;;14.15;7.05;;;-4.30;99.90;;;;;;5022099;28;20037;-73
2021/12/26 02:06:42;;;;;;;13.27;5.65;;;-4.30;99.90;;;;;;5023183;28;20169;-71
2021/12/26 02:09:12;;;;;;;11.98;6.05;;;-4.30;99.90;;;;;;5022897;28;20064;-70
2021/12/26 02:11:38;;;;;;;10.85;5.10;;;-4.30;99.90;;;;;;5022275;28;20491;-71
2021/12/26 02:14:04;;;;;;;10.82;5.45;;;-4.30;99.90;;;;;;5021546;28;20605;-71
2021/12/26 02:16:29;;;;;;;9.85;5.30;;;-4.30;99.90;;;;;;5018166;28;20132;-72
2021/12/26 02:18:55;;;;;;;13.93;5.82;;;-4.30;99.90;;;;;;5021240;28;20479;-71
2021/12/26 02:24:02;;;;;;;10.82;5.80;;;-4.30;99.90;;;;;;5022618;28;20052;-71
2021/12/26 02:29:12;;;;;;;10.15;4.60;;;-4.30;99.90;;;;;;5021627;28;20068;-71
2021/12/26 02:31:38;;;;;;;10.52;5.30;;;-4.30;99.90;;;;;;5019361;28;20061;-75
2021/12/26 02:34:03;;;;;;;10.30;5.35;;;-4.30;99.90;;;;;;5020613;28;20092;-71
2021/12/26 02:36:32;;;;;;;11.82;5.18;;;-4.30;99.90;;;;;;5017842;28;20084;-71
2021/12/26 02:38:59;;;;;;;11.75;5.03;;;-4.30;99.90;;;;;;5023696;28;20034;-70
2021/12/26 02:41:24;;;;;;;9.70;4.68;;;-4.40;99.90;;;;;;5020026;28;20030;-71
2021/12/26 02:43:50;;;;;;;10.32;5.05;;;-4.30;99.90;;;;;;5021425;28;20660;-71
2021/12/26 02:46:16;;;;;;;12.50;5.63;;;-4.40;99.90;;;;;;5021153;28;20048;-71
2021/12/26 02:48:42;;;;;;;10.65;5.43;;;-4.40;99.90;;;;;;5018687;28;20037;-73
2021/12/26 02:51:08;;;;;;;12.68;5.82;;;-4.40;99.90;;;;;;5021489;28;20026;-71
2021/12/26 02:53:34;;;;;;;15.63;5.63;;;-4.40;99.90;;;;;;5021806;28;20034;-71
2021/12/26 02:56:00;;;;;;;11.15;6.85;;;-4.40;99.90;;;;;;5021747;28;20408;-70
2021/12/26 02:58:26;;;;;;;14.20;6.53;;;-4.40;99.90;;;;;;5019919;28;20026;-73
2021/12/26 03:00:59;;;;;;;12.98;5.90;;;-4.50;99.90;;;;;;5022259;28;20033;-71
2021/12/26 03:03:25;;;;;;;18.67;8.05;;;-4.50;99.90;;;;;;5020587;28;20041;-72
2021/12/26 03:05:57;;;;;;;19.55;7.72;;;-4.50;99.90;;;;;;5020602;28;20052;-71
2021/12/26 03:08:23;;;;;;;18.05;8.93;;;-4.50;99.90;;;;;;5021256;28;20454;-72
2021/12/26 03:10:51;;;;;;;19.25;8.75;;;-4.50;99.90;;;;;;5020397;28;20076;-71
2021/12/26 03:13:17;;;;;;;22.17;9.65;;;-4.60;99.90;;;;;;5022375;28;20021;-71
2021/12/26 03:15:43;;;;;;;17.25;8.50;;;-4.70;99.90;;;;;;5018965;28;20036;-70
2021/12/26 03:18:09;;;;;;;16.90;8.23;;;-4.70;99.90;;;;;;5021061;28;20395;-71
2021/12/26 03:20:39;;;;;;;18.55;7.53;;;-4.70;99.90;;;;;;5019064;28;20480;-71
2021/12/26 03:23:06;;;;;;;16.30;7.72;;;-4.70;99.90;;;;;;5019452;28;20037;-72
2021/12/26 03:25:33;;;;;;;15.65;8.10;;;-4.70;99.90;;;;;;5019115;28;20053;-71
2021/12/26 03:28:00;;;;;;;12.65;7.55;;;-4.60;99.90;;;;;;5023983;28;20096;-72
2021/12/26 03:30:27;;;;;;;13.02;7.38;;;-4.60;99.90;;;;;;5018736;28;20424;-71
2021/12/26 03:32:55;;;;;;;11.93;6.43;;;-4.70;99.90;;;;;;5022901;28;20029;-71
2021/12/26 03:35:23;;;;;;;15.57;7.53;;;-4.70;99.90;;;;;;5017311;28;20420;-71
2021/12/26 03:37:49;;;;;;;12.98;6.85;;;-4.70;99.90;;;;;;5017056;28;20042;-71
2021/12/26 03:40:14;;;;;;;16.50;6.65;;;-4.80;99.90;;;;;;5020055;28;20033;-71
2021/12/26 03:42:40;;;;;;;16.58;7.82;;;-4.80;99.90;;;;;;5022427;28;20025;-71
2021/12/26 03:45:08;;;;;;;14.55;7.38;;;-4.80;99.90;;;;;;5022071;28;20087;-71
2021/12/26 03:47:34;;;;;;;18.15;8.05;;;-4.80;99.90;;;;;;5020842;28;20034;-72
2021/12/26 03:50:01;;;;;;;15.10;7.97;;;-4.80;99.90;;;;;;5020010;28;20052;-71
2021/12/26 03:52:27;;;;;;;13.85;7.78;;;-4.70;99.90;;;;;;5016993;28;20118;-70
2021/12/26 03:54:54;;;;;;;18.60;7.45;;;-4.80;99.90;;;;;;5020496;28;20081;-70
2021/12/26 03:57:20;;;;;;;14.82;7.32;;;-4.90;99.90;;;;;;5019637;28;20025;-71
2021/12/26 03:59:46;;;;;;;22.17;9.18;;;-4.80;99.90;;;;;;5017529;28;20061;-71
2021/12/26 04:02:12;;;;;;;15.90;7.35;;;-4.80;99.90;;;;;;5019152;28;20022;-70
2021/12/26 04:04:39;;;;;;;16.30;8.15;;;-4.80;99.90;;;;;;5023020;28;20030;-70
2021/12/26 04:07:05;;;;;;;20.63;8.07;;;-4.80;99.90;;;;;;5022142;28;20029;-71
2021/12/26 04:09:31;;;;;;;16.13;7.70;;;-4.90;99.90;;;;;;5017892;28;20025;-70
2021/12/26 04:11:56;;;;;;;13.13;7.35;;;-4.80;99.90;;;;;;5018512;28;20079;-70
2021/12/26 04:14:22;;;;;;;18.73;7.97;;;-4.80;99.90;;;;;;5019889;28;20033;-72
2021/12/26 04:16:48;;;;;;;15.80;7.55;;;-4.80;99.90;;;;;;5018159;28;20475;-70
2021/12/26 04:19:14;;;;;;;17.58;8.40;;;-4.80;99.90;;;;;;5016497;28;20415;-72
2021/12/26 04:21:40;;;;;;;17.58;8.40;;;-4.90;99.90;;;;;;5018381;28;20112;-71
2021/12/26 04:24:06;;;;;;;18.50;8.07;;;-4.90;99.90;;;;;;5021336;28;20562;-71
2021/12/26 04:26:32;;;;;;;21.80;8.82;;;-4.80;99.90;;;;;;5054477;22;20034;-72
2021/12/26 04:28:58;;;;;;;15.80;7.43;;;-4.80;99.90;;;;;;5042347;28;20060;-72
2021/12/26 04:31:24;;;;;;;14.70;7.07;;;-4.90;99.90;;;;;;5024767;28;20057;-72
2021/12/26 04:33:50;;;;;;;17.67;8.02;;;-4.80;99.90;;;;;;5042362;28;20377;-72
2021/12/26 04:36:17;;;;;;;12.43;7.20;;;-4.90;99.90;;;;;;5042302;28;20087;-72
2021/12/26 04:38:44;;;;;;;15.82;7.97;;;-4.90;99.90;;;;;;5041424;28;20021;-72
2021/12/26 04:41:11;;;;;;;13.35;6.55;;;-4.80;99.90;;;;;;5039889;28;20064;-71
2021/12/26 04:43:37;;;;;;;13.32;7.22;;;-4.90;99.90;;;;;;5040134;28;20558;-72
2021/12/26 04:46:07;;;;;;;12.02;7.10;;;-4.90;99.90;;;;;;5039042;28;20021;-72
2021/12/26 04:48:39;;;;;;;16.75;7.38;;;-4.90;99.90;;;;;;5040390;28;20508;-72
2021/12/26 04:51:06;;;;;;;17.77;7.85;;;-4.90;99.90;;;;;;5041958;28;20506;-72
2021/12/26 04:53:32;;;;;;;15.63;7.50;;;-5.00;99.90;;;;;;5041082;28;20484;-72
2021/12/26 04:55:58;;;;;;;19.85;8.07;;;-5.00;99.90;;;;;;5039892;28;20049;-72
2021/12/26 04:58:24;;;;;;;19.23;8.45;;;-5.00;99.90;;;;;;5040611;28;20486;-72
2021/12/26 05:00:50;;;;;;;17.20;8.13;;;-5.00;99.90;;;;;;5041110;28;20112;-72
2021/12/26 05:03:16;;;;;;;17.70;8.45;;;-5.00;99.90;;;;;;5040785;28;20021;-74
2021/12/26 05:05:44;;;;;;;14.45;7.38;;;-5.00;99.90;;;;;;5039843;28;20083;-72
2021/12/26 05:08:10;;;;;;;13.07;6.70;;;-5.00;99.90;;;;;;5041439;28;20032;-72
2021/12/26 05:10:36;;;;;;;14.57;6.88;;;-5.00;99.90;;;;;;5038842;28;20025;-74
2021/12/26 05:13:03;;;;;;;10.82;6.22;;;-5.10;99.90;;;;;;5039106;28;20502;-72
2021/12/26 05:15:29;;;;;;;8.68;4.80;;;-5.10;99.90;;;;;;5039803;28;20124;-72
2021/12/26 05:17:56;;;;;;;10.02;4.97;;;-5.10;99.90;;;;;;5041660;28;20037;-72
2021/12/26 05:20:23;;;;;;;10.18;4.55;;;-5.10;99.90;;;;;;5040192;28;20112;-72
2021/12/26 05:22:50;;;;;;;8.45;4.25;;;-5.10;99.90;;;;;;5039715;28;20028;-72
2021/12/26 05:25:16;;;;;;;7.07;3.78;;;-5.10;99.90;;;;;;5041568;28;20173;-72
2021/12/26 05:27:42;;;;;;;6.95;3.72;;;-5.10;99.90;;;;;;5038790;28;20510;-71
2021/12/26 05:30:12;;;;;;;8.35;3.72;;;-5.10;99.90;;;;;;5039634;28;20034;-72
2021/12/26 05:32:38;;;;;;;8.65;3.50;;;-5.10;99.90;;;;;;5040693;28;20663;-73
2021/12/26 05:35:04;;;;;;;11.88;4.15;;;-5.10;99.90;;;;;;5038808;28;20044;-72
2021/12/26 05:37:30;;;;;;;8.50;3.45;;;-5.10;99.90;;;;;;5041694;28;20022;-72
2021/12/26 05:39:56;;;;;;;6.13;3.60;;;-5.10;99.90;;;;;;5041175;28;20539;-72
2021/12/26 05:42:23;;;;;;;8.43;3.75;;;-5.10;99.90;;;;;;5039844;28;20491;-71
2021/12/26 05:44:49;;;;;;;8.60;3.83;;;-5.10;99.90;;;;;;5038642;28;20102;-72
2021/12/26 05:47:15;;;;;;;8.63;3.67;;;-5.10;99.90;;;;;;5040121;28;20064;-72
2021/12/26 05:49:41;;;;;;;8.10;3.90;;;-5.10;99.90;;;;;;5037756;28;20498;-72
2021/12/26 05:52:07;;;;;;;8.38;4.15;;;-5.10;99.90;;;;;;5040996;28;20107;-72
2021/12/26 05:54:33;;;;;;;10.38;4.53;;;-5.10;99.90;;;;;;5038319;28;20510;-72
2021/12/26 05:56:59;;;;;;;8.65;3.90;;;-5.20;99.90;;;;;;5040192;28;20044;-73
2021/12/26 05:59:25;;;;;;;7.82;4.28;;;-5.20;99.90;;;;;;5041180;28;20033;-71
2021/12/26 06:01:51;;;;;;;9.57;4.10;;;-5.20;99.90;;;;;;5042662;28;20529;-72
2021/12/26 06:04:16;;;;;;;9.02;4.13;;;-5.20;99.90;;;;;;5038941;28;20649;-72
2021/12/26 06:06:43;;;;;;;8.02;3.72;;;-5.20;99.90;;;;;;5040651;28;20040;-73
2021/12/26 06:09:09;;;;;;;12.13;3.72;;;-5.20;99.90;;;;;;5041463;28;20091;-71
2021/12/26 06:11:35;;;;;;;7.13;3.70;;;-5.20;99.90;;;;;;5039029;28;20483;-72
2021/12/26 06:14:01;;;;;;;6.22;3.88;;;-5.30;99.90;;;;;;5042428;28;20083;-72
2021/12/26 06:16:27;;;;;;;8.90;4.15;;;-5.30;99.90;;;;;;5038423;28;20033;-72
2021/12/26 06:18:52;;;;;;;10.27;3.65;;;-5.30;99.90;;;;;;5040404;28;20033;-72
2021/12/26 06:21:18;;;;;;;7.40;3.58;;;-5.30;99.90;;;;;;5039264;28;20083;-74
2021/12/26 06:23:50;;;;;;;7.05;3.60;;;-5.30;99.90;;;;;;5041590;28;20045;-72
2021/12/26 06:26:20;;;;;;;8.13;3.92;;;-5.30;99.90;;;;;;5043030;28;20080;-72
2021/12/26 06:28:46;;;;;;;4.90;3.23;;;-5.30;99.90;;;;;;5042776;28;20231;-74
2021/12/26 06:31:12;;;;;;;6.07;3.30;;;-5.40;99.90;;;;;;5044285;28;20037;-71
2021/12/26 06:33:39;;;;;;;7.47;3.78;;;-5.40;99.90;;;;;;5043099;28;20290;-72
2021/12/26 06:36:06;;;;;;;11.13;4.85;;;-5.40;99.90;;;;;;5045283;28;20167;-72
2021/12/26 06:38:33;;;;;;;9.88;4.72;;;-5.40;99.90;;;;;;5041598;28;20041;-71
2021/12/26 06:41:00;;;;;;;14.27;4.97;;;-5.40;99.90;;;;;;5043083;28;20025;-73
2021/12/26 06:43:26;;;;;;;16.08;5.50;;;-5.30;99.90;;;;;;5043460;28;20367;-71
2021/12/26 06:45:53;;;;;;;10.20;5.45;;;-5.30;99.90;;;;;;5041222;28;20047;-72
2021/12/26 06:48:19;;;;;;;15.48;5.65;;;-5.30;99.90;;;;;;5042276;28;20028;-74
2021/12/26 06:50:46;;;;;;;11.63;5.43;;;-5.30;99.90;;;;;;5043513;28;20036;-71
2021/12/26 06:53:12;;;;;;;18.42;6.28;;;-5.30;99.90;;;;;;5043120;28;20021;-72
2021/12/26 06:55:38;;;;;;;13.10;5.68;;;-5.30;99.90;;;;;;5022610;28;20030;-72
2021/12/26 06:58:04;;;;;;;14.10;5.85;;;-5.30;99.90;;;;;;5041886;28;20017;-72
2021/12/26 07:00:30;;;;;;;18.42;6.25;;;-5.30;99.90;;;;;;5043143;28;20036;-72
2021/12/26 07:02:56;;;;;;;13.65;6.07;;;-5.40;99.90;;;;;;5043515;28;20037;-71
2021/12/26 07:05:22;;;;;;;15.52;6.00;;;-5.30;99.90;;;;;;5042781;28;20057;-72
2021/12/26 07:07:47;;;;;;;14.90;6.72;;;-5.40;99.90;;;;;;5042534;28;20056;-72
2021/12/26 07:10:14;;;;;;;13.57;5.70;;;-5.30;99.90;;;;;;5042192;28;20472;-74
2021/12/26 07:12:40;;;;;;;12.77;6.22;;;-5.40;99.90;;;;;;5041549;28;20029;-71
2021/12/26 07:15:06;;;;;;;14.75;5.97;;;-5.40;99.90;;;;;;5042667;28;20430;-72
2021/12/26 07:17:32;;;;;;;11.75;6.05;;;-5.10;99.90;;;;;;5042657;28;20027;-72
2021/12/26 07:19:57;;;;;;;15.55;6.07;;;-5.00;99.90;;;;;;5042633;28;20033;-72
2021/12/26 07:22:23;;;;;;;11.15;5.40;;;-5.00;99.90;;;;;;5042314;28;20111;-73
2021/12/26 07:24:49;;;;;;;9.48;4.70;;;-5.00;99.90;;;;;;5043106;28;20354;-73
2021/12/26 07:27:15;;;;;;;11.55;4.93;;;-5.10;99.90;;;;;;5042029;28;20104;-72
2021/12/26 07:29:41;;;;;;;12.57;5.50;;;-5.10;99.90;;;;;;5043030;28;20469;-74
2021/12/26 07:32:08;;;;;;;9.95;4.90;;;-5.20;99.90;;;;;;5041633;28;20271;-72
2021/12/26 07:34:34;;;;;;;12.27;4.30;;;-5.20;99.90;;;;;;5041193;28;20036;-72
2021/12/26 07:37:01;;;;;;;13.38;4.78;;;-5.20;99.90;;;;;;5040895;28;20025;-72
2021/12/26 07:39:27;;;;;;;8.95;4.45;;;-5.30;99.90;;;;;;5042027;28;20029;-72
2021/12/26 07:41:52;;;;;;;12.27;4.70;;;-5.30;99.90;;;;;;5040974;28;20112;-72
2021/12/26 07:44:18;;;;;;;8.65;4.13;;;-5.30;99.90;;;;;;5041088;28;20100;-71
2021/12/26 07:46:44;;;;;;;9.55;4.10;;;-5.30;99.90;;;;;;5040972;28;20029;-72
2021/12/26 07:49:09;;;;;;;10.20;4.60;;;-5.30;99.90;;;;;;5042711;28;20460;-73
2021/12/26 07:51:35;;;;;;;11.48;4.38;;;-5.40;99.90;;;;;;5042367;28;20490;-72
2021/12/26 07:54:02;;;;;;;7.70;4.13;;;-5.40;99.90;;;;;;5041723;28;20498;-72
2021/12/26 07:56:31;;;;;;;9.23;4.43;;;-5.40;99.90;;;;;;5039865;28;20025;-72
2021/12/26 07:58:58;;;;;;;9.70;4.35;;;-5.40;99.90;;;;;;5043221;28;20162;-72
2021/12/26 08:01:28;;;;;;;10.07;4.60;;;-5.40;99.90;;;;;;5040989;28;20514;-73
2021/12/26 08:03:54;;;;;;;12.10;5.05;;;-5.40;99.90;;;;;;5048404;28;20033;-72
2021/12/26 08:06:20;;;;;;;10.35;4.32;;;-5.40;99.90;;;;;;5042038;28;20490;-72
2021/12/26 08:08:48;;;;;;;10.55;4.60;;;-5.40;99.90;;;;;;5042709;28;20294;-72
2021/12/26 08:11:14;;;;;;;9.52;5.03;;;-5.30;99.90;;;;;;5041200;28;20033;-72
2021/12/26 08:13:40;;;;;;;10.18;4.47;;;-5.30;99.90;;;;;;5043093;28;20033;-72
2021/12/26 08:16:06;;;;;;;9.48;4.50;;;-5.30;99.90;;;;;;5040974;28;20025;-72
2021/12/26 08:18:32;;;;;;;7.88;3.90;;;-5.30;99.90;;;;;;5044612;28;20509;-71
2021/12/26 08:20:57;;;;;;;9.45;4.10;;;-5.20;99.90;;;;;;5040393;28;20029;-71
2021/12/26 08:23:23;;;;;;;11.52;4.40;;;-5.20;99.90;;;;;;5041212;28;20025;-73
2021/12/26 08:25:49;;;;;;;10.20;4.30;;;-5.20;99.90;;;;;;5041715;28;20447;-72
2021/12/26 08:28:15;;;;;;;7.32;4.43;;;-5.20;99.90;;;;;;5064801;28;20120;-73
2021/12/26 08:30:42;;;;;;;10.30;4.80;;;-5.20;99.90;;;;;;5041916;28;20025;-73
2021/12/26 08:33:08;;;;;;;11.68;4.72;;;-5.20;99.90;;;;;;5041693;28;20462;-72
2021/12/26 08:35:35;;;;;;;9.05;4.65;;;-5.20;99.90;;;;;;5040092;28;20064;-72
2021/12/26 08:38:02;;;;;;;9.98;4.85;;;-5.20;99.90;;;;;;5040325;28;20084;-73
2021/12/26 08:40:28;;;;;;;7.72;4.93;;;-5.20;99.90;;;;;;5040537;28;20086;-73
2021/12/26 08:42:54;;;;;;;9.45;4.38;;;-5.20;99.90;;;;;;5039927;28;20033;-73
2021/12/26 08:45:20;;;;;;;9.25;4.47;;;-5.20;99.90;;;;;;5039352;28;20172;-73
2021/12/26 08:47:47;;;;;;;11.50;5.35;;;-5.20;99.90;;;;;;5038885;28;20495;-73
2021/12/26 08:50:13;;;;;;;9.90;5.00;;;-5.20;99.90;;;;;;5041139;28;20032;-73
2021/12/26 08:52:39;;;;;;;10.40;5.30;;;-5.10;99.90;;;;;;5042258;28;20490;-72
2021/12/26 08:55:06;;;;;;;7.63;4.13;;;-5.10;99.90;;;;;;5039957;28;20483;-73
2021/12/26 08:57:32;;;;;;;11.02;5.15;;;-5.10;99.90;;;;;;5040316;28;20087;-73
2021/12/26 08:59:59;;;;;;;7.80;4.45;;;-5.00;99.90;;;;;;5038721;28;20402;-73
2021/12/26 09:02:26;;;;;;;8.68;4.22;;;-5.00;99.90;;;;;;5039496;28;20061;-73
2021/12/26 09:04:51;;;;;;;10.20;4.95;;;-5.00;99.90;;;;;;5041525;28;20104;-73
2021/12/26 09:07:17;;;;;;;7.90;4.07;;;-5.00;99.90;;;;;;5042839;28;20196;-72
2021/12/26 09:09:46;;;;;;;7.68;4.13;;;-4.90;99.90;;;;;;5039994;28;20095;-72
2021/12/26 09:12:12;;;;;;;8.82;4.18;;;-4.90;99.90;;;;;;5037416;28;20039;-73
2021/12/26 09:14:38;;;;;;;9.05;4.20;;;-4.90;99.90;;;;;;5039934;28;20029;-73
2021/12/26 09:17:05;;;;;;;9.23;4.47;;;-4.90;99.90;;;;;;5041305;28;20429;-73
2021/12/26 09:19:32;;;;;;;8.00;3.97;;;-4.90;99.90;;;;;;5040705;28;20028;-73
2021/12/26 09:22:06;;;;;;;8.60;4.22;;;-4.90;99.90;;;;;;5040137;28;20108;-73
2021/12/26 09:24:31;;;;;;;7.88;4.07;;;-4.90;99.90;;;;;;5038352;28;20119;-72
2021/12/26 09:26:57;;;;;;;8.93;3.90;;;-4.80;99.90;;;;;;5039200;28;20542;-73
2021/12/26 09:29:23;;;;;;;9.77;4.78;;;-4.80;99.90;;;;;;5038186;28;20100;-72
2021/12/26 09:31:51;;;;;;;9.15;4.70;;;-4.70;99.90;;;;;;5040381;28;20072;-74
2021/12/26 09:34:17;;;;;;;9.57;4.95;;;-4.50;99.90;;;;;;5039193;28;20032;-72
2021/12/26 09:36:43;;;;;;;11.90;4.97;;;-4.40;99.90;;;;;;5040261;28;20029;-74
2021/12/26 09:39:09;;;;;;;11.18;4.75;;;-4.40;99.90;;;;;;5022809;28;20036;-73
2021/12/26 09:41:37;;;;;;;10.98;4.20;;;-4.40;99.90;;;;;;5039492;28;20033;-72
2021/12/26 09:44:04;;;;;;;8.60;4.10;;;-4.50;99.90;;;;;;5035141;28;20029;-73
2021/12/26 09:46:32;;;;;;;7.55;3.65;;;-4.50;99.90;;;;;;5038347;28;20029;-72
2021/12/26 09:48:58;;;;;;;7.20;3.60;;;-4.50;99.90;;;;;;5040676;28;20033;-73
2021/12/26 09:51:25;;;;;;;8.75;3.67;;;-4.60;99.90;;;;;;5040631;28;20028;-72
2021/12/26 09:53:51;;;;;;;8.68;3.10;;;-4.60;99.90;;;;;;5038913;28;20043;-72
2021/12/26 09:56:18;;;;;;;5.72;3.47;;;-4.60;99.90;;;;;;5063357;28;20028;-71
2021/12/26 09:58:56;;;;;;;8.98;3.65;;;-4.60;99.90;;;;;;5039764;28;20040;-72
2021/12/26 10:01:35;;;;;;;7.78;3.78;;;-4.50;99.90;;;;;;5044727;28;20347;-72
2021/12/26 10:04:14;;;;;;;9.68;3.97;;;-4.50;99.90;;;;;;5044389;28;20021;-72
2021/12/26 10:06:40;;;;;;;7.18;2.83;;;-4.50;99.90;;;;;;5045539;28;20021;-72
2021/12/26 10:09:10;;;;;;;5.97;3.17;;;-4.50;99.90;;;;;;5046718;28;20029;-72
2021/12/26 10:11:42;;;;;;;5.50;2.47;;;-4.60;99.90;;;;;;5043084;28;20483;-72
2021/12/26 10:14:11;;;;;;;6.55;3.15;;;-4.50;99.90;;;;;;5044407;28;20761;-71
2021/12/26 10:16:45;;;;;;;5.18;2.67;;;-4.50;99.90;;;;;;5041623;28;20509;-72
2021/12/26 10:19:12;;;;;;;4.95;2.70;;;-4.50;99.90;;;;;;5044287;28;20518;-72
2021/12/26 10:22:01;;;;;;;5.85;2.67;;;-4.50;99.90;;;;;;5042349;28;20500;-72
2021/12/26 10:24:42;;;;;;;4.20;2.35;;;-4.50;99.90;;;;;;5035857;28;20298;-72
2021/12/26 10:27:14;;;;;;;8.38;2.50;;;-4.40;99.90;;;;;;5045299;28;20487;-72
2021/12/26 10:29:44;;;;;;;6.47;2.90;;;-4.40;99.90;;;;;;5042969;28;20026;-72
2021/12/26 10:32:18;;;;;;;7.45;3.67;;;-4.40;99.90;;;;;;5043841;28;20036;-72
2021/12/26 10:34:57;;;;;;;5.35;2.63;;;-4.40;99.90;;;;;;5043683;28;20018;-71
2021/12/26 10:37:24;;;;;;;6.22;3.60;;;-4.30;99.90;;;;;;5042774;28;20036;-72
2021/12/26 10:39:53;;;;;;;9.18;3.20;;;-4.30;99.90;;;;;;5057240;28;20021;-71
2021/12/26 10:42:30;;;;;;;7.35;3.33;;;-4.30;99.90;;;;;;5025660;28;20170;-72
2021/12/26 10:45:10;;;;;;;8.10;3.05;;;-4.30;99.90;;;;;;5044824;28;20815;-72
2021/12/26 10:47:39;;;;;;;5.18;3.00;;;-4.30;99.90;;;;;;5043731;28;20090;-72
2021/12/26 10:50:11;;;;;;;7.10;2.90;;;-4.20;99.90;;;;;;5043024;28;20029;-72
2021/12/26 10:52:50;;;;;;;7.13;3.30;;;-4.20;99.90;;;;;;5044686;28;20043;-72
2021/12/26 10:55:26;;;;;;;5.82;2.97;;;-4.10;99.90;;;;;;5042626;28;20037;-72
2021/12/26 10:57:52;;;;;;;8.30;3.25;;;-4.10;99.90;;;;;;5044059;28;20033;-72
2021/12/26 11:00:22;;;;;;;4.75;2.80;;;-4.00;99.90;;;;;;5040228;28;20119;-72
2021/12/26 11:02:52;;;;;;;5.82;3.47;;;-4.00;99.90;;;;;;5041928;28;20562;-71
2021/12/26 11:05:29;;;;;;;7.72;3.15;;;-4.00;99.90;;;;;;5042383;28;20025;-72
2021/12/26 11:08:01;;;;;;;6.50;3.47;;;-3.90;99.90;;;;;;5065350;28;20103;-72
2021/12/26 11:10:48;;;;;;;5.70;3.17;;;-3.90;99.90;;;;;;5043114;28;20025;-72
2021/12/26 11:13:23;;;;;;;8.77;3.17;;;-3.80;99.90;;;;;;5042957;28;20061;-72
2021/12/26 11:15:54;;;;;;;8.43;3.42;;;-3.80;99.90;;;;;;5043189;28;20029;-72
2021/12/26 11:18:20;;;;;;;5.70;3.05;;;-3.70;99.90;;;;;;5043709;28;20034;-72
2021/12/26 11:20:52;;;;;;;8.57;3.40;;;-3.70;99.90;;;;;;5043439;28;20029;-72
2021/12/26 11:23:20;;;;;;;7.63;3.75;;;-3.70;99.90;;;;;;5044176;28;20036;-73
2021/12/26 11:25:57;;;;;;;8.13;3.42;;;-3.60;99.90;;;;;;5042771;28;20060;-72
2021/12/26 11:28:30;;;;;;;8.30;4.07;;;-3.60;99.90;;;;;;5041405;28;20083;-72
2021/12/26 11:30:59;;;;;;;8.60;3.78;;;-3.60;99.90;;;;;;5042771;28;20040;-72
2021/12/26 11:33:25;;;;;;;7.60;3.53;;;-3.50;99.90;;;;;;5042555;28;20052;-72
2021/12/26 11:35:53;;;;;;;7.15;3.17;;;-3.50;99.90;;;;;;5045220;28;20517;-72
2021/12/26 11:38:22;;;;;;;8.77;2.97;;;-3.50;99.90;;;;;;5046302;28;20092;-72
2021/12/26 11:40:51;;;;;;;6.72;3.15;;;-3.50;99.90;;;;;;5043081;28;20064;-72
2021/12/26 11:43:43;;;;;;;5.60;3.15;;;-3.40;99.90;;;;;;5040084;28;20029;-72
2021/12/26 11:46:21;;;;;;;6.10;2.65;;;-3.40;99.90;;;;;;5042505;28;20494;-72
2021/12/26 11:49:11;;;;;;;7.07;2.95;;;-3.40;99.90;;;;;;5042228;28;20083;-72
2021/12/26 11:52:05;;;;;;;4.90;2.75;;;-3.30;99.80;;;;;;5044170;28;20029;-72
2021/12/26 11:54:56;;;;;;;6.13;2.95;;;-3.30;99.90;;;;;;5043598;28;20034;-72
2021/12/26 11:57:51;;;;;;;6.75;3.47;;;-3.30;99.90;;;;;;5041402;28;20025;-72
2021/12/26 12:00:34;;;;;;;6.47;3.22;;;-3.30;99.90;;;;;;5023976;28;20037;-72
2021/12/26 12:03:03;;;;;;;6.10;3.25;;;-3.20;99.90;;;;;;5044141;28;20029;-72
2021/12/26 12:05:39;;;;;;;7.57;3.35;;;-3.10;99.90;;;;;;5045028;28;20022;-73
2021/12/26 12:08:04;;;;;;;7.57;3.25;;;-3.10;99.90;;;;;;5040327;28;20036;-72
2021/12/26 12:10:53;;;;;;;8.98;3.03;;;-3.10;99.90;;;;;;5040359;28;20029;-72
2021/12/26 12:13:21;;;;;;;5.22;2.78;;;-3.10;99.90;;;;;;5043226;28;20474;-72
2021/12/26 12:15:52;;;;;;;4.53;2.42;;;-3.00;99.40;;;;;;5045876;28;20021;-72
2021/12/26 12:18:23;;;;;;;6.28;2.83;;;-3.00;99.60;;;;;;5040731;28;20043;-72
2021/12/26 12:21:30;;;;;;;6.07;3.00;;;-2.90;98.80;;;;;;5041532;28;20039;-73
2021/12/26 12:24:13;;;;;;;5.22;2.50;;;-2.90;98.70;;;;;;4982894;28;20040;-72
2021/12/26 12:27:00;;;;;;;5.78;2.55;;;-2.90;99.40;;;;;;5036319;28;20063;-72
2021/12/26 12:29:28;;;;;;;3.95;2.30;;;-2.90;98.10;;;;;;5041999;28;20119;-72
2021/12/26 12:32:16;;;;;;;5.00;2.70;;;-2.80;98.60;;;;;;5042852;28;20048;-73
2021/12/26 12:35:04;;;;;;;5.65;2.60;;;-2.80;98.50;;;;;;5040816;28;20029;-72
2021/12/26 12:37:36;;;;;;;6.45;2.90;;;-2.80;98.10;;;;;;5043002;28;20044;-72
2021/12/26 12:40:26;;;;;;;5.47;2.92;;;-2.70;98.60;;;;;;5041166;28;20083;-72
2021/12/26 12:43:10;;;;;;;5.47;2.35;;;-2.70;98.90;;;;;;5040861;28;20151;-71
2021/12/26 12:45:56;;;;;;;6.93;2.70;;;-2.70;98.50;;;;;;5040389;28;20029;-73
2021/12/26 12:48:34;;;;;;;5.05;2.50;;;-2.70;97.70;;;;;;5040566;28;20047;-72
2021/12/26 12:51:14;;;;;;;6.50;2.50;;;-2.60;96.80;;;;;;5039295;28;20104;-72
2021/12/26 12:53:46;;;;;;;7.65;2.70;;;-2.60;97.30;;;;;;5040515;28;20028;-72
2021/12/26 12:56:30;;;;;;;3.75;2.28;;;-2.60;98.30;;;;;;5041415;28;20036;-72